Home   Weather   Brignogan-Plages   Past weeks
Flag for France

Past Weather in Brignogan-Plages, Finistère, France — Yesterday and Last 2 Weeks

Currently: 57 °F. Low clouds. (Weather station: Brest Airport, France). See more current weather

Past Weather in Brignogan-Plages — Graph

°F

Brignogan-Plages Temperature Yesterday

Maximum temperature yesterday: 73 °F (at 1:30 pm)
Minimum temperature yesterday: 54 °F (at 5:30 am)
Average temperature yesterday: 61 °F

High & Low Weather Summary for the Past Weeks

 TemperatureHumidityPressure
High73 °F (May 9, 2:00 pm)100% (May 3, 4:30 am)30.39 "Hg (May 3, 4:30 am)
Low41 °F (May 14, 6:30 am)46% (May 13, 2:30 pm)29.77 "Hg (May 15, 6:00 pm)
Average57 °F82%30.14 "Hg
* Reported May 3 12:00 am — May 18 12:30 am, Brignogan-Plages. Weather by CustomWeather, © 2022

Note: Actual official high and low records may vary slightly from our data, if they occured in-between our weather recording intervals... More about our weather records

Brignogan-Plages Weather History for the Previous 24 Hours

Scroll right to see more
 ConditionsComfort  
Time TempWeatherWind HumidityBarometerVisibility
12:30 am
Wed, May 18
57 °FLow clouds.12 mph94%30.09 "HgN/A
12:00 am57 °FOvercast.13 mph94%30.09 "HgN/A
11:30 pm
Tue, May 17
57 °FOvercast.13 mph88%30.09 "HgN/A
11:00 pm57 °FOvercast.15 mph88%30.09 "HgN/A
10:30 pm57 °FMostly cloudy.15 mph88%30.07 "HgN/A
10:00 pm57 °FPassing clouds.14 mph88%30.07 "HgN/A
9:30 pm59 °FOvercast.17 mph82%30.04 "HgN/A
9:00 pm59 °FScattered clouds.18 mph82%30.04 "HgN/A
8:30 pm61 °FPartly sunny.17 mph77%30.04 "HgN/A
8:00 pm61 °FPartly sunny.21 mph77%30.04 "HgN/A
7:30 pm63 °FPassing clouds.18 mph73%30.04 "HgN/A
7:00 pm63 °FSunny.22 mph73%30.01 "Hg10 mi
6:30 pm64 °FScattered clouds.20 mph68%30.01 "HgN/A
6:00 pm63 °FSunny.15 mph77%30.01 "Hg10 mi
5:30 pm63 °FPartly sunny.16 mph83%29.98 "HgN/A
5:00 pm63 °FBroken clouds.20 mph88%29.98 "HgN/A
4:30 pm61 °FMostly cloudy.18 mph94%29.98 "HgN/A
4:00 pm64 °FMostly cloudy.21 mph78%29.98 "HgN/A
3:30 pm66 °FMostly cloudy.18 mph73%29.98 "HgN/A
3:00 pm64 °FPartly sunny.25 mph83%29.95 "HgN/A
2:30 pm72 °FMostly cloudy.20 mph61%29.95 "HgN/A
2:00 pm70 °FMostly cloudy.20 mph64%29.95 "HgN/A
1:30 pm73 °FMostly cloudy.18 mph57%29.95 "HgN/A
1:00 pm70 °FSunny.15 mph64%29.95 "Hg10 mi
12:30 pm70 °FSunny.18 mph64%29.95 "Hg10 mi
12:00 pm72 °FPassing clouds.20 mph61%29.95 "HgN/A
11:30 am70 °FScattered clouds.17 mph64%29.95 "HgN/A
11:00 am70 °FSunny.18 mph64%29.98 "Hg10 mi
10:00 am66 °FSunny.13 mph64%29.98 "Hg10 mi
9:30 am66 °FSunny.12 mph60%29.98 "Hg10 mi
9:00 am63 °FSunny.10 mph68%30.01 "Hg10 mi
8:30 am61 °FSunny.10 mph72%30.01 "Hg10 mi
8:00 am59 °FSunny.12 mph77%30.01 "Hg10 mi
7:00 am55 °FSunny.8 mph82%30.01 "Hg10 mi
6:30 am55 °FPassing clouds.7 mph88%30.01 "HgN/A
6:00 am54 °FClear.7 mph94%30.01 "Hg10 mi
5:30 am54 °FClear.7 mph94%30.01 "Hg10 mi
5:00 am55 °FClear.7 mph94%30.01 "Hg10 mi
4:30 am55 °FClear.8 mph94%30.01 "Hg10 mi
4:00 am55 °FClear.8 mph94%30.01 "Hg10 mi
3:30 am55 °FClear.8 mph94%30.04 "Hg10 mi
3:00 am55 °FClear.9 mph88%30.04 "Hg10 mi
2:30 am55 °FClear.9 mph94%30.04 "Hg10 mi
2:00 am57 °FClear.8 mph88%30.04 "Hg10 mi
1:30 am57 °FClear.8 mph88%30.04 "Hg10 mi
1:00 am57 °FClear.9 mph88%30.04 "Hg10 mi
Weather by CustomWeather, © 2022

See weather overview